Terminal Aerodrome Forecast
Issued by NWS

Home | Current Version | Previous Version | Text Only | Print | Product List | Glossary On
Versions: 1 2 3 4 5 6 7 8 9 10 11 12 13 14 15 16 17
000
FTAK31 PAJN 282300
TAFASI
TAF
PASI 282330Z 2900/2924 26006KT 6SM -RA BR SCT010 BKN015 OVC060
     FM290400 16005KT 5SM -RA BR SCT010 BKN015 OVC025
     FM291500 14006KT P6SM -RA FEW010 BKN025 OVC050
     FM291800 VRB03KT P6SM -RA SCT025 OVC050
     FM292100 18006KT P6SM -RA OVC050=

USA.gov is the U.S. government's official web portal to all federal, state and local government web resources and services.